Mariner Of The Seas — C6FV9 — position and weather

sailwx.info

Track history (hours):
 
Tides and Currents Weather Stations Pressure Air Temp Water Temp Dewpoint Dewpoint Depression Visibility Wind Speed Wind Dir Waves Ship Positions

Mariner Of The Seas

Operator: Royal Caribbean Cruises Ltd

Last reported at 2017-Feb-24 07:28 UTC. Time now 2017-Feb-24 08:20 UTC.
Position N 01°16' E 103°52'.

Type: Passenger vessel. MMSI: 311493000.

Date/timePositionNaut miles runAvg speedWind from/ knotsBaromVisibWave heightAir tempDewpointWater temp
2017-Feb-24 07:28N 01°16' E 103°52'0 0.0
2017-Feb-24 05:28N 01°16' E 103°52'0 0.0
2017-Feb-24 04:10N 01°16' E 103°52'0 0.0
2017-Feb-24 03:25N 01°16' E 103°52'0 0.0
2017-Feb-24 02:10N 01°16' E 103°52'0 0.0
2017-Feb-24 00:13N 01°16' E 103°52'0 0.2
2017-Feb-23 23:33N 01°16' E 103°52'6 5.9
2017-Feb-23 22:33N 01°11' E 103°49'1413.6
2017-Feb-23 21:33N 01°04' E 103°37'1615.7
2017-Feb-23 20:32N 01°12' E 103°23'3514.4
2017-Feb-23 18:05N 01°34' E 102°55'714.1
2017-Feb-23 17:33N 01°38' E 102°49'1414.3
2017-Feb-23 16:33N 01°44' E 102°36'1414.3
2017-Feb-23 15:33N 01°50' E 102°23'  
2017-Feb-20 15:33N 01°52' E 102°26'1616.4
2017-Feb-20 14:33N 01°45' E 102°41'4916.2
2017-Feb-20 11:33N 01°17' E 103°21'1615.8
2017-Feb-20 10:33N 01°11' E 103°36'1515.0
2017-Feb-20 09:33N 01°12' E 103°51'5 4.3
2017-Feb-20 08:30N 01°16' E 103°52'0 0.0
2017-Feb-20 07:06N 01°16' E 103°52'0 0.0
2017-Feb-20 02:18N 01°16' E 103°52'0 0.0
2017-Feb-19 23:33N 01°16' E 103°52'5 5.0
2017-Feb-19 22:32N 01°11' E 103°50'1412.4
2017-Feb-19 21:26N 01°03' E 103°39'1112.1
2017-Feb-19 20:32N 01°08' E 103°30'1212.2
2017-Feb-19 19:31N 01°16' E 103°20'  
2017-Feb-17 14:28N 01°54' E 102°19'2519.1
2017-Feb-17 13:10N 01°45' E 102°42'5320.2
2017-Feb-17 10:33N 01°15' E 103°26'1919.0
2017-Feb-17 09:33N 01°08' E 103°44'1110.6
2017-Feb-17 08:33N 01°16' E 103°52'0 0.1
2017-Feb-17 07:31N 01°16' E 103°52'0 0.0
2017-Feb-17 06:31N 01°16' E 103°52'0 0.0
2017-Feb-17 05:31N 01°16' E 103°52'0 0.0
2017-Feb-17 04:25N 01°16' E 103°52'0 0.0
2017-Feb-17 03:25N 01°16' E 103°52'0 0.0
2017-Feb-17 01:31N 01°16' E 103°52'0 0.0
2017-Feb-17 00:31N 01°16' E 103°52'0 0.1
2017-Feb-16 23:34N 01°16' E 103°52'5 5.3
2017-Feb-16 22:33N 01°11' E 103°50'1313.5
2017-Feb-16 21:34N 01°03' E 103°39'1414.2
2017-Feb-16 20:33N 01°10' E 103°27'4814.5
2017-Feb-16 17:16N 01°38' E 102°48'1715.3
2017-Feb-16 16:10N 01°44' E 102°33'915.3
2017-Feb-16 15:34N 01°48' E 102°24'  
Track history (hours):
 
Tides and Currents Weather Stations Pressure Air Temp Water Temp Dewpoint Dewpoint Depression Visibility Wind Speed Wind Dir Waves Ship Positions

Mariner Of The Seas

Operator: Royal Caribbean Cruises Ltd

Last reported at 2017-Feb-24 07:28 UTC. Time now 2017-Feb-24 08:20 UTC.
Position N 01°16' E 103°52'.

Type: Passenger vessel. MMSI: 311493000.

Date/timePositionNaut miles runAvg speedWind from/ knotsBaromVisibWave heightAir tempDewpointWater temp
2017-Feb-24 07:28N 01°16' E 103°52'0 0.0
2017-Feb-24 05:28N 01°16' E 103°52'0 0.0
2017-Feb-24 04:10N 01°16' E 103°52'0 0.0
2017-Feb-24 03:25N 01°16' E 103°52'0 0.0
2017-Feb-24 02:10N 01°16' E 103°52'0 0.0
2017-Feb-24 00:13N 01°16' E 103°52'0 0.2
2017-Feb-23 23:33N 01°16' E 103°52'6 5.9
2017-Feb-23 22:33N 01°11' E 103°49'1413.6
2017-Feb-23 21:33N 01°04' E 103°37'1615.7
2017-Feb-23 20:32N 01°12' E 103°23'3514.4
2017-Feb-23 18:05N 01°34' E 102°55'714.1
2017-Feb-23 17:33N 01°38' E 102°49'1414.3
2017-Feb-23 16:33N 01°44' E 102°36'1414.3
2017-Feb-23 15:33N 01°50' E 102°23'  
2017-Feb-20 15:33N 01°52' E 102°26'1616.4
2017-Feb-20 14:33N 01°45' E 102°41'4916.2
2017-Feb-20 11:33N 01°17' E 103°21'1615.8
2017-Feb-20 10:33N 01°11' E 103°36'1515.0
2017-Feb-20 09:33N 01°12' E 103°51'5 4.3
2017-Feb-20 08:30N 01°16' E 103°52'0 0.0
2017-Feb-20 07:06N 01°16' E 103°52'0 0.0
2017-Feb-20 02:18N 01°16' E 103°52'0 0.0
2017-Feb-19 23:33N 01°16' E 103°52'5 5.0
2017-Feb-19 22:32N 01°11' E 103°50'1412.4
2017-Feb-19 21:26N 01°03' E 103°39'1112.1
2017-Feb-19 20:32N 01°08' E 103°30'1212.2
2017-Feb-19 19:31N 01°16' E 103°20'  
2017-Feb-17 14:28N 01°54' E 102°19'2519.1
2017-Feb-17 13:10N 01°45' E 102°42'5320.2
2017-Feb-17 10:33N 01°15' E 103°26'1919.0
2017-Feb-17 09:33N 01°08' E 103°44'1110.6
2017-Feb-17 08:33N 01°16' E 103°52'0 0.1
2017-Feb-17 07:31N 01°16' E 103°52'0 0.0
2017-Feb-17 06:31N 01°16' E 103°52'0 0.0
2017-Feb-17 05:31N 01°16' E 103°52'0 0.0
2017-Feb-17 04:25N 01°16' E 103°52'0 0.0
2017-Feb-17 03:25N 01°16' E 103°52'0 0.0
2017-Feb-17 01:31N 01°16' E 103°52'0 0.0
2017-Feb-17 00:31N 01°16' E 103°52'0 0.1
2017-Feb-16 23:34N 01°16' E 103°52'5 5.3
2017-Feb-16 22:33N 01°11' E 103°50'1313.5
2017-Feb-16 21:34N 01°03' E 103°39'1414.2
2017-Feb-16 20:33N 01°10' E 103°27'4814.5
2017-Feb-16 17:16N 01°38' E 102°48'1715.3
2017-Feb-16 16:10N 01°44' E 102°33'915.3
2017-Feb-16 15:34N 01°48' E 102°24'  

Dump ship's entire track history